createdAt,value
2022-12-04T00:01:26.593Z,98969.56
2022-12-04T00:03:55.441Z,98966.59
2022-12-04T00:06:24.766Z,98969.09
2022-12-04T00:08:53.294Z,98966.13
2022-12-04T00:11:23.921Z,98971.56
2022-12-04T00:13:52.086Z,98973.28
2022-12-04T00:16:22.614Z,98972.31
2022-12-04T00:18:52.420Z,98964.38
2022-12-04T00:21:21.988Z,98969.31
2022-12-04T00:23:50.504Z,98961.66
2022-12-04T00:26:20.195Z,98962.03
2022-12-04T00:28:49.277Z,98969.91
2022-12-04T00:31:19.539Z,98953.44
2022-12-04T00:33:48.039Z,98957.25
2022-12-04T00:36:19.928Z,98961.84
2022-12-04T00:38:48.725Z,98960.00
2022-12-04T00:41:18.611Z,98956.16
2022-12-04T00:43:46.872Z,98960.84
2022-12-04T00:46:15.561Z,98955.97
2022-12-04T00:48:43.657Z,98951.47
2022-12-04T00:51:13.483Z,98962.03
2022-12-04T00:53:43.077Z,98953.94
2022-12-04T00:56:14.207Z,98945.38
2022-12-04T00:58:42.833Z,98942.66
2022-12-04T01:01:12.958Z,98940.13
2022-12-04T01:03:41.360Z,98948.19
2022-12-04T01:06:18.271Z,98936.25
2022-12-04T01:08:48.188Z,98940.81
2022-12-04T01:11:16.488Z,98932.19
2022-12-04T01:13:44.637Z,98937.78
2022-12-04T01:16:17.744Z,98928.91
2022-12-04T01:18:45.757Z,98923.78
2022-12-04T01:21:13.878Z,98921.78
2022-12-04T01:23:41.820Z,98919.38
2022-12-04T01:26:11.411Z,98921.69
2022-12-04T01:28:39.591Z,98915.00
2022-12-04T01:31:09.536Z,98906.53
2022-12-04T01:33:38.707Z,98906.72
2022-12-04T01:36:09.012Z,98901.88
2022-12-04T01:38:37.784Z,98900.84
2022-12-04T01:41:06.717Z,98905.63
2022-12-04T01:43:37.955Z,98906.28
2022-12-04T01:46:07.020Z,98907.03
2022-12-04T01:48:38.776Z,98906.13
2022-12-04T01:51:12.146Z,98904.06
2022-12-04T01:53:45.471Z,98895.97
2022-12-04T01:56:15.292Z,98899.97
2022-12-04T01:58:49.944Z,98889.69
2022-12-04T02:01:18.003Z,98888.91
2022-12-04T02:03:46.108Z,98892.75
2022-12-04T02:06:13.977Z,98894.50
2022-12-04T02:08:42.208Z,98896.81
2022-12-04T02:11:21.016Z,98896.38
2022-12-04T02:14:01.682Z,98881.06
2022-12-04T02:16:38.345Z,98898.34
2022-12-04T02:19:25.508Z,98891.75
2022-12-04T02:21:57.013Z,98907.75
2022-12-04T02:24:49.982Z,98898.03
2022-12-04T02:27:36.137Z,98900.03
2022-12-04T02:30:07.858Z,98893.38
2022-12-04T02:32:43.366Z,98896.06
2022-12-04T02:35:16.967Z,98894.47
2022-12-04T02:37:48.212Z,98902.59
2022-12-04T02:40:25.343Z,98909.66
2022-12-04T02:42:59.439Z,98901.38
2022-12-04T02:45:34.098Z,98898.09
2022-12-04T02:48:05.974Z,98900.94
2022-12-04T02:50:38.496Z,98899.94
2022-12-04T02:53:11.623Z,98899.19
2022-12-04T02:55:44.200Z,98897.31
2022-12-04T02:58:17.619Z,98903.69
2022-12-04T03:00:49.852Z,98903.47
2022-12-04T03:03:21.269Z,98910.00
2022-12-04T03:05:56.519Z,98911.41
2022-12-04T03:08:28.837Z,98914.25
2022-12-04T03:11:00.725Z,98918.41
2022-12-04T03:13:35.844Z,98912.91
2022-12-04T03:16:11.311Z,98909.13
2022-12-04T03:18:43.238Z,98914.59
2022-12-04T03:21:15.535Z,98907.56
2022-12-04T03:23:47.725Z,98912.03
2022-12-04T03:26:25.239Z,98903.22
2022-12-04T03:28:58.757Z,98912.69
2022-12-04T03:31:37.013Z,98915.22
2022-12-04T03:34:07.165Z,98905.06
2022-12-04T03:36:38.752Z,98902.22
2022-12-04T03:39:14.015Z,98905.41
2022-12-04T03:41:58.953Z,98906.06
2022-12-04T03:44:31.000Z,98906.50
2022-12-04T03:47:05.853Z,98910.22
2022-12-04T03:49:43.563Z,98906.13
2022-12-04T03:52:16.190Z,98900.69
2022-12-04T03:54:48.474Z,98896.63
2022-12-04T03:57:22.404Z,98903.00
2022-12-04T03:59:56.065Z,98906.34
2022-12-04T04:02:29.707Z,98911.75
2022-12-04T04:05:01.164Z,98890.28
2022-12-04T04:07:35.981Z,98900.25
2022-12-04T04:10:09.218Z,98913.50
2022-12-04T04:12:42.926Z,98913.94
2022-12-04T04:15:32.757Z,98909.91
2022-12-04T04:18:20.508Z,98904.53
2022-12-04T04:21:11.541Z,98909.28
2022-12-04T04:24:01.627Z,98910.25
2022-12-04T04:26:35.732Z,98909.34
2022-12-04T04:29:03.974Z,98907.25
2022-12-04T04:31:39.301Z,98908.91
2022-12-04T04:34:19.742Z,98918.19
2022-12-04T04:36:55.199Z,98918.47
2022-12-04T04:39:32.014Z,98921.47
2022-12-04T04:42:05.904Z,98904.81
2022-12-04T04:44:40.863Z,98905.56
2022-12-04T04:47:13.006Z,98901.34
2022-12-04T04:49:43.831Z,98905.25
2022-12-04T04:52:11.829Z,98896.09
2022-12-04T04:54:40.857Z,98899.97
2022-12-04T04:57:08.789Z,98880.47
2022-12-04T04:59:36.820Z,98891.31
2022-12-04T05:02:05.365Z,98891.00
2022-12-04T05:04:33.409Z,98888.25
2022-12-04T05:07:02.712Z,98891.56
2022-12-04T05:09:30.613Z,98899.97
2022-12-04T05:11:58.520Z,98909.56
2022-12-04T05:14:26.457Z,98906.34
2022-12-04T05:16:56.790Z,98900.94
2022-12-04T05:19:45.675Z,98913.13
2022-12-04T05:22:14.972Z,98902.22
2022-12-04T05:24:43.049Z,98893.72
2022-12-04T05:27:11.081Z,98894.81
2022-12-04T05:29:39.196Z,98886.84
2022-12-04T05:32:07.252Z,98897.72
2022-12-04T05:34:35.231Z,98885.78
2022-12-04T05:37:03.516Z,98890.75
2022-12-04T05:39:33.057Z,98897.78
2022-12-04T05:42:01.061Z,98895.47
2022-12-04T05:44:28.941Z,98900.66
2022-12-04T05:46:56.906Z,98896.13
2022-12-04T05:49:25.102Z,98902.03
2022-12-04T05:51:53.067Z,98904.78
2022-12-04T05:54:24.199Z,98902.28
2022-12-04T05:56:54.963Z,98912.22
2022-12-04T05:59:23.279Z,98909.06
2022-12-04T06:01:51.311Z,98909.81
2022-12-04T06:04:19.276Z,98917.22
2022-12-04T06:06:47.477Z,98915.16
2022-12-04T06:09:15.441Z,98917.94
2022-12-04T06:11:44.005Z,98915.03
2022-12-04T06:14:16.642Z,98920.50
2022-12-04T06:16:46.100Z,98919.09
2022-12-04T06:19:16.510Z,98914.53
2022-12-04T06:21:46.487Z,98919.91
2022-12-04T06:24:16.461Z,98915.78
2022-12-04T06:27:11.276Z,98906.53
2022-12-04T06:29:34.679Z,98912.84
2022-12-04T06:32:02.636Z,98913.16
2022-12-04T06:34:30.584Z,98914.53
2022-12-04T06:36:58.476Z,98920.63
2022-12-04T06:39:26.489Z,98928.81
2022-12-04T06:41:54.394Z,98927.63
2022-12-04T06:44:22.364Z,98922.59
2022-12-04T06:46:54.714Z,98920.16
2022-12-04T06:49:23.117Z,98920.44
2022-12-04T06:51:51.097Z,98923.84
2022-12-04T06:54:19.155Z,98925.97
2022-12-04T06:56:47.027Z,98921.91
2022-12-04T06:59:14.960Z,98919.22
2022-12-04T07:01:43.034Z,98912.06
2022-12-04T07:04:12.370Z,98910.88
2022-12-04T07:06:40.853Z,98906.25
2022-12-04T07:09:11.266Z,98906.66
2022-12-04T07:11:39.846Z,98899.00
2022-12-04T07:14:08.269Z,98897.97
2022-12-04T07:16:40.877Z,98899.13
2022-12-04T07:19:09.377Z,98896.91
2022-12-04T07:21:38.755Z,98899.84
2022-12-04T07:24:07.279Z,98903.34
2022-12-04T07:26:35.288Z,98908.22
2022-12-04T07:29:03.173Z,98911.13
2022-12-04T07:31:31.405Z,98912.34
2022-12-04T07:33:59.721Z,98910.13
2022-12-04T07:36:28.678Z,98896.91
2022-12-04T07:38:58.313Z,98911.25
2022-12-04T07:41:26.294Z,98905.66
2022-12-04T07:43:54.898Z,98911.66
2022-12-04T07:46:27.605Z,98903.69
2022-12-04T07:48:57.064Z,98901.13
2022-12-04T07:51:27.014Z,98895.94
2022-12-04T07:54:02.775Z,98899.06
2022-12-04T07:56:31.567Z,98901.69
2022-12-04T07:59:00.246Z,98904.41
2022-12-04T08:01:28.745Z,98900.31
2022-12-04T08:03:59.049Z,98894.03
2022-12-04T08:06:28.591Z,98897.59
2022-12-04T08:08:58.405Z,98889.06
2022-12-04T08:11:28.182Z,98887.88
2022-12-04T08:13:57.369Z,98895.38
2022-12-04T08:16:26.293Z,98894.03
2022-12-04T08:18:55.238Z,98899.56
2022-12-04T08:21:25.253Z,98895.56
2022-12-04T08:23:54.402Z,98892.63
2022-12-04T08:26:27.461Z,98898.69
2022-12-04T08:28:56.138Z,98897.81
2022-12-04T08:31:26.978Z,98905.28
2022-12-04T08:33:57.900Z,98918.72
2022-12-04T08:36:26.300Z,98913.97
2022-12-04T08:38:54.405Z,98908.84
2022-12-04T08:41:26.305Z,98908.59
2022-12-04T08:43:56.065Z,98910.13
2022-12-04T08:46:26.247Z,98907.59
2022-12-04T08:48:55.063Z,98905.91
2022-12-04T08:51:25.699Z,98897.47
2022-12-04T08:53:56.091Z,98920.28
2022-12-04T08:56:26.082Z,98916.00
2022-12-04T08:58:54.216Z,98922.84
2022-12-04T09:01:22.179Z,98919.63
2022-12-04T09:03:50.463Z,98918.34
2022-12-04T09:06:19.024Z,98910.44
2022-12-04T09:08:47.172Z,98906.84
2022-12-04T09:11:16.960Z,98908.69
2022-12-04T09:13:46.822Z,98910.19
2022-12-04T09:16:17.113Z,98908.75
2022-12-04T09:18:45.853Z,98916.03
2022-12-04T09:21:16.659Z,98919.72
2022-12-04T09:23:44.740Z,98926.56
2022-12-04T09:26:20.087Z,98918.44
2022-12-04T09:28:50.250Z,98919.84
2022-12-04T09:31:19.249Z,98916.25
2022-12-04T09:33:47.625Z,98903.38
2022-12-04T09:36:17.080Z,98907.31
2022-12-04T09:38:45.827Z,98905.13
2022-12-04T09:41:31.585Z,98904.09
2022-12-04T09:44:04.837Z,98907.69
2022-12-04T09:46:37.847Z,98898.91
2022-12-04T09:49:12.199Z,98887.72
2022-12-04T09:51:43.291Z,98889.47
2022-12-04T09:54:15.346Z,98885.81
2022-12-04T09:56:50.326Z,98883.63
2022-12-04T09:59:23.059Z,98880.16
2022-12-04T10:01:57.072Z,98871.28
2022-12-04T10:04:25.824Z,98875.97
2022-12-04T10:07:02.151Z,98870.91
2022-12-04T10:09:37.747Z,98873.53
2022-12-04T10:12:17.601Z,98871.41
2022-12-04T10:15:11.245Z,98861.44
2022-12-04T10:17:58.489Z,98857.94
2022-12-04T10:20:49.105Z,98842.41
2022-12-04T10:23:24.979Z,98843.16
2022-12-04T10:25:55.998Z,98838.25
2022-12-04T10:28:30.748Z,98831.09
2022-12-04T10:31:03.445Z,98825.56
2022-12-04T10:33:38.939Z,98821.44
2022-12-04T10:36:08.199Z,98822.56
2022-12-04T10:38:41.546Z,98820.56
2022-12-04T10:41:16.528Z,98810.25
2022-12-04T10:43:46.078Z,98809.19
2022-12-04T10:46:19.894Z,98811.25
2022-12-04T10:48:52.205Z,98819.91
2022-12-04T10:51:22.993Z,98816.19
2022-12-04T10:53:52.202Z,98810.59
2022-12-04T10:56:22.170Z,98814.00
2022-12-04T10:59:00.413Z,98819.50
2022-12-04T11:01:32.122Z,98815.63
2022-12-04T11:04:05.016Z,98813.97
2022-12-04T11:06:33.745Z,98804.34
2022-12-04T11:09:03.715Z,98794.91
2022-12-04T11:11:34.321Z,98798.28
2022-12-04T11:14:04.517Z,98794.91
2022-12-04T11:16:37.930Z,98799.63
2022-12-04T11:19:20.535Z,98793.97
2022-12-04T11:21:49.174Z,98792.13
2022-12-04T11:24:23.296Z,98782.00
2022-12-04T11:26:53.186Z,98789.78
2022-12-04T11:29:26.280Z,98793.59
2022-12-04T11:31:58.660Z,98789.09
2022-12-04T11:34:36.434Z,98790.19
2022-12-04T11:37:04.967Z,98788.44
2022-12-04T11:39:37.868Z,98786.81
2022-12-04T11:42:16.639Z,98781.44
2022-12-04T11:44:52.707Z,98787.81
2022-12-04T11:47:26.277Z,98788.13
2022-12-04T11:50:03.992Z,98783.13
2022-12-04T11:52:51.288Z,98783.47
2022-12-04T11:55:29.147Z,98784.25
2022-12-04T11:58:16.942Z,98788.53
2022-12-04T12:00:52.003Z,98774.72
2022-12-04T12:03:28.345Z,98777.16
2022-12-04T12:06:18.287Z,98781.34
2022-12-04T12:08:58.157Z,98782.47
2022-12-04T12:11:31.791Z,98790.13
2022-12-04T12:14:09.441Z,98785.97
2022-12-04T12:16:51.668Z,98789.09
2022-12-04T12:19:39.359Z,98785.72
2022-12-04T12:22:14.756Z,98778.50
2022-12-04T12:24:51.531Z,98785.34
2022-12-04T12:27:37.475Z,98776.34
2022-12-04T12:30:10.686Z,98781.53
2022-12-04T12:32:59.512Z,98782.53
2022-12-04T12:35:34.139Z,98776.47
2022-12-04T12:38:04.072Z,98782.03
2022-12-04T12:40:36.471Z,98775.66
2022-12-04T12:43:08.948Z,98774.44
2022-12-04T12:45:45.126Z,98774.28
2022-12-04T12:48:26.838Z,98772.66
2022-12-04T12:51:28.539Z,98768.97
2022-12-04T12:53:53.614Z,98760.84
2022-12-04T12:56:34.410Z,98751.06
2022-12-04T12:59:07.386Z,98765.09
2022-12-04T13:01:44.826Z,98771.34
2022-12-04T13:04:20.796Z,98772.44
2022-12-04T13:06:55.255Z,98766.22
2022-12-04T13:09:29.960Z,98768.22
2022-12-04T13:12:02.785Z,98758.91
2022-12-04T13:14:30.763Z,98767.31
2022-12-04T13:17:02.585Z,98763.47
2022-12-04T13:19:35.471Z,98765.47
2022-12-04T13:22:17.678Z,98759.19
2022-12-04T13:25:16.947Z,98759.94
2022-12-04T13:27:55.312Z,98760.38
2022-12-04T13:30:25.463Z,98765.13
2022-12-04T13:33:15.269Z,98763.88
2022-12-04T13:36:01.765Z,98770.03
2022-12-04T13:38:41.661Z,98764.09
2022-12-04T13:41:12.013Z,98772.84
2022-12-04T13:43:47.394Z,98778.75
2022-12-04T13:46:31.089Z,98773.34
2022-12-04T13:49:11.008Z,98787.47
2022-12-04T13:51:41.154Z,98787.09
2022-12-04T13:54:29.344Z,98783.34
2022-12-04T13:56:59.353Z,98780.06
2022-12-04T13:59:39.872Z,98780.72
2022-12-04T14:02:25.543Z,98789.81
2022-12-04T14:04:57.553Z,98781.34
2022-12-04T14:07:30.014Z,98790.00
2022-12-04T14:10:04.768Z,98789.28
2022-12-04T14:12:37.690Z,98788.00
2022-12-04T14:15:08.918Z,98787.31
2022-12-04T14:17:39.569Z,98791.41
2022-12-04T14:20:22.763Z,98788.47
2022-12-04T14:22:50.686Z,98793.03
2022-12-04T14:25:36.001Z,98789.75
2022-12-04T14:28:25.232Z,98784.28
2022-12-04T14:31:07.514Z,98783.97
2022-12-04T14:33:43.859Z,98778.91
2022-12-04T14:36:19.295Z,98775.19
2022-12-04T14:38:49.618Z,98780.00
2022-12-04T14:41:27.403Z,98789.44
2022-12-04T14:43:56.847Z,98786.97
2022-12-04T14:46:32.593Z,98787.22
2022-12-04T14:49:11.012Z,98785.19
2022-12-04T14:51:46.304Z,98780.75
2022-12-04T14:54:23.457Z,98784.16
2022-12-04T14:57:12.169Z,98789.81
2022-12-04T14:59:44.080Z,98789.00
2022-12-04T15:02:14.878Z,98801.09
2022-12-04T15:04:46.509Z,98811.59
2022-12-04T15:07:22.050Z,98799.16
2022-12-04T15:10:12.919Z,98796.97
2022-12-04T15:12:47.442Z,98794.78
2022-12-04T15:15:25.130Z,98801.25
2022-12-04T15:18:05.324Z,98788.25
2022-12-04T15:20:39.217Z,98789.28
2022-12-04T15:23:07.776Z,98794.81
2022-12-04T15:25:42.250Z,98783.28
2022-12-04T15:28:15.395Z,98785.28
2022-12-04T15:30:45.016Z,98794.06
2022-12-04T15:33:21.186Z,98798.84
2022-12-04T15:35:53.778Z,98799.88
2022-12-04T15:38:22.382Z,98802.47
2022-12-04T15:40:53.120Z,98803.72
2022-12-04T15:43:30.173Z,98802.69
2022-12-04T15:45:59.097Z,98807.06
2022-12-04T15:48:28.599Z,98806.69
2022-12-04T15:51:01.977Z,98826.38
2022-12-04T15:53:33.622Z,98821.34
2022-12-04T15:56:04.329Z,98812.34
2022-12-04T15:58:35.231Z,98810.72
2022-12-04T16:01:06.361Z,98811.03
2022-12-04T16:03:46.475Z,98809.31
2022-12-04T16:06:20.512Z,98827.41
2022-12-04T16:08:51.011Z,98824.75
2022-12-04T16:11:31.063Z,98828.44
2022-12-04T16:14:19.936Z,98820.16
2022-12-04T16:16:49.881Z,98819.03
2022-12-04T16:19:30.990Z,98816.41
2022-12-04T16:21:59.730Z,98818.59
2022-12-04T16:24:27.984Z,98825.28
2022-12-04T16:26:58.241Z,98832.84
2022-12-04T16:29:27.596Z,98829.13
2022-12-04T16:32:01.246Z,98819.19
2022-12-04T16:34:31.312Z,98813.84
2022-12-04T16:37:00.410Z,98813.81
2022-12-04T16:39:28.407Z,98813.31
2022-12-04T16:41:56.353Z,98820.38
2022-12-04T16:44:24.238Z,98818.84
2022-12-04T16:46:53.560Z,98821.78
2022-12-04T16:49:21.574Z,98814.72
2022-12-04T16:51:50.729Z,98825.34
2022-12-04T16:54:18.826Z,98817.41
2022-12-04T16:56:46.708Z,98819.66
2022-12-04T16:59:14.739Z,98817.59
2022-12-04T17:01:46.395Z,98825.78
2022-12-04T17:04:58.581Z,98823.47
2022-12-04T17:07:26.615Z,98818.72
2022-12-04T17:09:54.571Z,98823.19
2022-12-04T17:12:22.473Z,98820.47
2022-12-04T17:14:50.394Z,98826.97
2022-12-04T17:17:18.270Z,98829.72
2022-12-04T17:19:46.621Z,98838.56
2022-12-04T17:22:16.426Z,98826.75
2022-12-04T17:24:50.264Z,98831.78
2022-12-04T17:27:22.835Z,98827.09
2022-12-04T17:29:50.821Z,98823.50
2022-12-04T17:32:18.747Z,98817.81
2022-12-04T17:34:46.699Z,98822.06
2022-12-04T17:37:15.968Z,98820.66
2022-12-04T17:39:43.934Z,98824.59
2022-12-04T17:42:11.834Z,98827.56
2022-12-04T17:44:39.779Z,98828.09
2022-12-04T17:47:07.779Z,98826.00
2022-12-04T17:49:35.904Z,98829.84
2022-12-04T17:52:03.947Z,98820.72
2022-12-04T17:54:33.336Z,98824.13
2022-12-04T17:57:01.275Z,98821.56
2022-12-04T17:59:29.355Z,98818.91
2022-12-04T18:01:57.276Z,98833.34
2022-12-04T18:04:25.300Z,98833.06
2022-12-04T18:06:53.712Z,98828.53
2022-12-04T18:09:21.835Z,98832.53
2022-12-04T18:11:51.184Z,98830.03
2022-12-04T18:14:22.159Z,98831.13
2022-12-04T18:16:53.112Z,98834.53
2022-12-04T18:19:22.459Z,98828.88
2022-12-04T18:21:51.203Z,98827.53
2022-12-04T18:24:19.475Z,98829.97
2022-12-04T18:26:49.359Z,98826.13
2022-12-04T18:29:21.041Z,98824.84
2022-12-04T18:31:51.322Z,98821.34
2022-12-04T18:34:22.206Z,98825.34
2022-12-04T18:36:50.678Z,98828.56
2022-12-04T18:39:21.364Z,98819.81
2022-12-04T18:41:50.192Z,98820.47
2022-12-04T18:44:22.783Z,98826.00
2022-12-04T18:46:50.916Z,98828.22
2022-12-04T18:49:18.808Z,98824.22
2022-12-04T18:51:50.057Z,98815.78
2022-12-04T18:54:21.263Z,98816.63
2022-12-04T18:56:49.399Z,98818.50
2022-12-04T18:59:21.725Z,98818.03
2022-12-04T19:01:51.018Z,98822.78
2022-12-04T19:04:22.091Z,98814.28
2022-12-04T19:06:52.328Z,98817.03
2022-12-04T19:09:40.740Z,98820.66
2022-12-04T19:12:11.965Z,98826.69
2022-12-04T19:14:41.534Z,98831.25
2022-12-04T19:17:09.540Z,98828.69
2022-12-04T19:19:37.582Z,98833.72
2022-12-04T19:22:05.622Z,98831.16
2022-12-04T19:24:33.853Z,98837.16
2022-12-04T19:27:10.033Z,98842.56
2022-12-04T19:29:38.294Z,98840.25
2022-12-04T19:32:08.386Z,98843.06
2022-12-04T19:34:36.840Z,98840.13
2022-12-04T19:37:04.775Z,98844.81
2022-12-04T19:39:32.704Z,98851.53
2022-12-04T19:42:00.653Z,98847.22
2022-12-04T19:47:18.244Z,98826.59
2022-12-04T19:49:46.607Z,98826.81
2022-12-04T19:52:14.790Z,98818.78
2022-12-04T19:54:42.934Z,98825.63
2022-12-04T19:57:11.224Z,98834.66
2022-12-04T19:59:44.515Z,98840.88
2022-12-04T20:02:14.684Z,98839.81
2022-12-04T20:04:44.243Z,98838.28
2022-12-04T20:07:12.360Z,98849.53
2022-12-04T20:09:40.377Z,98845.56
2022-12-04T20:12:08.662Z,98839.94
2022-12-04T20:14:36.654Z,98831.94
2022-12-04T20:17:05.292Z,98831.63
2022-12-04T20:19:33.394Z,98843.66
2022-12-04T20:22:02.676Z,98847.59
2022-12-04T20:24:30.591Z,98847.34
2022-12-04T20:26:58.572Z,98852.78
2022-12-04T20:29:26.498Z,98850.16
2022-12-04T20:31:54.406Z,98855.09
2022-12-04T20:34:22.434Z,98847.22
2022-12-04T20:36:50.687Z,98846.22
2022-12-04T20:39:20.960Z,98842.16
2022-12-04T20:41:49.328Z,98843.50
2022-12-04T20:44:19.344Z,98845.50
2022-12-04T20:46:48.343Z,98840.81
2022-12-04T20:49:22.586Z,98830.31
2022-12-04T20:51:52.167Z,98833.34
2022-12-04T20:54:23.624Z,98829.41
2022-12-04T20:56:53.356Z,98820.94
2022-12-04T20:59:23.898Z,98814.69
2022-12-04T21:01:52.955Z,98812.63
2022-12-04T21:04:21.393Z,98810.09
2022-12-04T21:06:49.341Z,98810.84
2022-12-04T21:09:19.267Z,98815.88
2022-12-04T21:11:50.388Z,98830.53
2022-12-04T21:14:38.046Z,98828.53
2022-12-04T21:17:07.729Z,98820.78
2022-12-04T21:19:36.119Z,98816.81
2022-12-04T21:22:04.121Z,98820.72
2022-12-04T21:24:38.023Z,98819.88
2022-12-04T21:27:09.177Z,98818.44
2022-12-04T21:29:37.944Z,98821.00
2022-12-04T21:32:07.937Z,98816.81
2022-12-04T21:34:36.374Z,98829.22
2022-12-04T21:37:04.577Z,98823.97
2022-12-04T21:39:32.740Z,98808.56
2022-12-04T21:42:18.272Z,98819.94
2022-12-04T21:44:47.640Z,98830.91
2022-12-04T21:47:15.525Z,98826.31
2022-12-04T21:49:43.489Z,98818.13
2022-12-04T21:52:11.385Z,98817.13
2022-12-04T21:54:39.351Z,98812.00
2022-12-04T21:57:07.335Z,98814.38
2022-12-04T21:59:35.282Z,98816.59
2022-12-04T22:02:05.176Z,98813.06
2022-12-04T22:04:33.183Z,98816.09
2022-12-04T22:07:01.081Z,98806.84
2022-12-04T22:09:29.116Z,98802.78
2022-12-04T22:11:57.077Z,98801.19
2022-12-04T22:14:25.053Z,98801.06
2022-12-04T22:16:54.327Z,98810.13
2022-12-04T22:19:24.196Z,98809.38
2022-12-04T22:21:52.173Z,98811.44
2022-12-04T22:24:20.097Z,98810.38
2022-12-04T22:26:48.043Z,98816.53
2022-12-04T22:29:48.574Z,98828.00
2022-12-04T22:32:03.922Z,98823.88
2022-12-04T22:34:33.268Z,98822.00
2022-12-04T22:37:01.238Z,98823.66
2022-12-04T22:39:29.185Z,98823.25
2022-12-04T22:41:57.106Z,98820.53
2022-12-04T22:44:25.109Z,98828.00
2022-12-04T22:46:53.114Z,98823.03
2022-12-04T22:49:21.288Z,98815.69
2022-12-04T22:51:50.659Z,98807.81
2022-12-04T22:54:18.598Z,98806.03
2022-12-04T22:56:46.543Z,98809.34
2022-12-04T22:59:14.516Z,98813.31
2022-12-04T23:01:42.435Z,98811.22
2022-12-04T23:04:11.413Z,98810.44
2022-12-04T23:06:39.662Z,98800.38
2022-12-04T23:09:12.692Z,98815.91
2022-12-04T23:11:40.829Z,98813.72
2022-12-04T23:14:11.790Z,98814.66
2022-12-04T23:16:41.011Z,98801.97
2022-12-04T23:19:12.019Z,98796.13
2022-12-04T23:21:40.655Z,98808.22
2022-12-04T23:24:10.664Z,98806.53
2022-12-04T23:26:41.705Z,98803.59
2022-12-04T23:29:29.656Z,98801.97
2022-12-04T23:31:57.831Z,98796.59
2022-12-04T23:34:25.985Z,98798.56
2022-12-04T23:36:53.905Z,98797.13
2022-12-04T23:39:23.209Z,98791.78
2022-12-04T23:41:51.132Z,98790.69
2022-12-04T23:44:19.117Z,98791.06
2022-12-04T23:46:47.082Z,98788.13
2022-12-04T23:49:14.990Z,98782.94
2022-12-04T23:51:42.949Z,98791.56
2022-12-04T23:54:11.320Z,98794.72
2022-12-04T23:56:40.825Z,98801.06
2022-12-04T23:59:08.708Z,98793.53
